RODAN11 EGUL-EGUL
Flight info
| Callsign | RODAN11 |
|---|---|
| Flight time | 1h 43m |
| Altitude | 14000 |
| Route | LKH DCT LICHFIELD RC VFR LFA7 STAY1/0040 DCT EGOV STAY2/0030 DCT LFA7 STAY3/0030 LCH RC DCT LKH |
| Aircraft | F15/M-SDGHIM1M3RTUY/L |
Departure
| Time | 2026-04-27 08:51 |
|---|---|
| Airport | RAF Lakenheath (EGUL) |
Arrival
| Time | 2026-04-27 10:34 |
|---|---|
| Airport | RAF Lakenheath (EGUL) |
| Time | Latitude | Longitude | Altitude | Speed | Heading |
|---|---|---|---|---|---|
| 2026-04-27 08:34 | 52.40066 | 0.55528 | 36 ft | 0 kts | 168° |
| 2026-04-27 08:44 | 52.40055 | 0.55532 | 36 ft | 5 kts | 168° |
| 2026-04-27 08:44 | 52.40042 | 0.55573 | 37 ft | 6 kts | 84° |
| 2026-04-27 08:45 | 52.40051 | 0.55671 | 38 ft | 9 kts | 81° |
| 2026-04-27 08:45 | 52.40063 | 0.55798 | 38 ft | 14 kts | 81° |
| 2026-04-27 08:45 | 52.40080 | 0.55977 | 40 ft | 16 kts | 81° |
| 2026-04-27 08:45 | 52.40096 | 0.56141 | 41 ft | 13 kts | 81° |
| 2026-04-27 08:46 | 52.40110 | 0.56279 | 42 ft | 14 kts | 81° |
| 2026-04-27 08:46 | 52.40127 | 0.56467 | 42 ft | 20 kts | 82° |
| 2026-04-27 08:46 | 52.40149 | 0.56705 | 43 ft | 21 kts | 80° |
| 2026-04-27 08:46 | 52.40173 | 0.56944 | 44 ft | 22 kts | 81° |
| 2026-04-27 08:47 | 52.40199 | 0.57133 | 46 ft | 13 kts | 57° |
| 2026-04-27 08:47 | 52.40278 | 0.57237 | 49 ft | 16 kts | 34° |
| 2026-04-27 08:47 | 52.40384 | 0.57328 | 51 ft | 17 kts | 14° |
| 2026-04-27 08:47 | 52.40523 | 0.57387 | 47 ft | 24 kts | 15° |
| 2026-04-27 08:48 | 52.40684 | 0.57458 | 44 ft | 23 kts | 15° |
| 2026-04-27 08:48 | 52.40843 | 0.57528 | 48 ft | 24 kts | 15° |
| 2026-04-27 08:48 | 52.40997 | 0.57594 | 50 ft | 22 kts | 14° |
| 2026-04-27 08:48 | 52.41143 | 0.57657 | 47 ft | 23 kts | 15° |
| 2026-04-27 08:49 | 52.41311 | 0.57730 | 40 ft | 26 kts | 15° |
| 2026-04-27 08:49 | 52.41475 | 0.57804 | 36 ft | 23 kts | 15° |
| 2026-04-27 08:49 | 52.41575 | 0.57804 | 37 ft | 14 kts | 332° |
| 2026-04-27 08:49 | 52.41589 | 0.57682 | 38 ft | 15 kts | 236° |
| 2026-04-27 08:50 | 52.41563 | 0.57619 | 38 ft | 0 kts | 235° |
| 2026-04-27 08:50 | 52.41544 | 0.57574 | 38 ft | 41 kts | 235° |
| 2026-04-27 08:51 | 52.40990 | 0.56255 | 128 ft | 230 kts | 235° |
| 2026-04-27 08:51 | 52.39865 | 0.53617 | 506 ft | 299 kts | 235° |
| 2026-04-27 08:51 | 52.39356 | 0.50554 | 1197 ft | 294 kts | 305° |
| 2026-04-27 08:51 | 52.40863 | 0.48333 | 2589 ft | 293 kts | 322° |
| 2026-04-27 08:52 | 52.42511 | 0.46284 | 3136 ft | 311 kts | 322° |
| 2026-04-27 08:52 | 52.44244 | 0.44071 | 3734 ft | 309 kts | 322° |
| 2026-04-27 08:52 | 52.45767 | 0.41701 | 4466 ft | 312 kts | 304° |
| 2026-04-27 08:52 | 52.46886 | 0.38625 | 5231 ft | 315 kts | 298° |
| 2026-04-27 08:53 | 52.47898 | 0.35421 | 5987 ft | 318 kts | 297° |
| 2026-04-27 08:53 | 52.48873 | 0.32192 | 6773 ft | 321 kts | 296° |
| 2026-04-27 08:53 | 52.49856 | 0.28892 | 7508 ft | 323 kts | 296° |
| 2026-04-27 08:53 | 52.50845 | 0.25558 | 8264 ft | 326 kts | 296° |
| 2026-04-27 08:54 | 52.51845 | 0.22165 | 9048 ft | 331 kts | 296° |
| 2026-04-27 08:54 | 52.52842 | 0.18769 | 9836 ft | 334 kts | 296° |
| 2026-04-27 08:54 | 52.53859 | 0.15298 | 10603 ft | 339 kts | 296° |
| 2026-04-27 08:54 | 52.54537 | 0.12980 | 11090 ft | 340 kts | 296° |
| 2026-04-27 08:55 | 52.55899 | 0.08324 | 12086 ft | 343 kts | 296° |
| 2026-04-27 08:55 | 52.56939 | 0.04770 | 12853 ft | 346 kts | 296° |
| 2026-04-27 08:55 | 52.57983 | 0.01196 | 13600 ft | 351 kts | 296° |
| 2026-04-27 08:55 | 52.59054 | -0.02475 | 13971 ft | 356 kts | 296° |
| 2026-04-27 08:56 | 52.60148 | -0.06230 | 14147 ft | 403 kts | 296° |
| 2026-04-27 08:56 | 52.61578 | -0.11141 | 14250 ft | 527 kts | 296° |
| 2026-04-27 08:56 | 52.63153 | -0.16562 | 14271 ft | 524 kts | 296° |
| 2026-04-27 08:56 | 52.64727 | -0.21995 | 14271 ft | 526 kts | 296° |
| 2026-04-27 08:57 | 52.67318 | -0.30918 | 14265 ft | 526 kts | 296° |
| 2026-04-27 08:57 | 52.68899 | -0.36380 | 14267 ft | 527 kts | 296° |
| 2026-04-27 08:57 | 52.70450 | -0.41746 | 14270 ft | 527 kts | 296° |
| 2026-04-27 08:58 | 52.72027 | -0.47217 | 14274 ft | 527 kts | 295° |
| 2026-04-27 08:58 | 52.73586 | -0.52637 | 14271 ft | 528 kts | 295° |
| 2026-04-27 08:58 | 52.75154 | -0.58098 | 14275 ft | 527 kts | 295° |
| 2026-04-27 08:58 | 52.76723 | -0.63571 | 14289 ft | 526 kts | 295° |
| 2026-04-27 08:59 | 52.78280 | -0.69012 | 14286 ft | 525 kts | 295° |
| 2026-04-27 08:59 | 52.79771 | -0.74234 | 14286 ft | 525 kts | 295° |
| 2026-04-27 08:59 | 52.81336 | -0.79726 | 14284 ft | 525 kts | 295° |
| 2026-04-27 08:59 | 52.82872 | -0.85128 | 14284 ft | 525 kts | 295° |
| 2026-04-27 09:00 | 52.84404 | -0.90532 | 14285 ft | 525 kts | 295° |
| 2026-04-27 09:00 | 52.85914 | -0.96012 | 14295 ft | 524 kts | 291° |
| 2026-04-27 09:00 | 52.86690 | -1.01761 | 14302 ft | 527 kts | 274° |
| 2026-04-27 09:00 | 52.86392 | -1.07811 | 14315 ft | 531 kts | 258° |
| 2026-04-27 09:01 | 52.85338 | -1.13675 | 14316 ft | 532 kts | 252° |
| 2026-04-27 09:01 | 52.84080 | -1.19432 | 14312 ft | 533 kts | 251° |
| 2026-04-27 09:01 | 52.82749 | -1.25157 | 14309 ft | 533 kts | 250° |
| 2026-04-27 09:01 | 52.81434 | -1.30658 | 14310 ft | 533 kts | 250° |
| 2026-04-27 09:02 | 52.80058 | -1.36350 | 14310 ft | 533 kts | 249° |
| 2026-04-27 09:02 | 52.78688 | -1.41995 | 14310 ft | 533 kts | 250° |
| 2026-04-27 09:02 | 52.77353 | -1.47602 | 14308 ft | 533 kts | 250° |
| 2026-04-27 09:02 | 52.76008 | -1.53310 | 14301 ft | 534 kts | 250° |
| 2026-04-27 09:03 | 52.74665 | -1.59032 | 14297 ft | 536 kts | 250° |
| 2026-04-27 09:03 | 52.73322 | -1.64787 | 14286 ft | 536 kts | 250° |
| 2026-04-27 09:03 | 52.71985 | -1.70528 | 14290 ft | 536 kts | 250° |
| 2026-04-27 09:03 | 52.70648 | -1.76272 | 14295 ft | 536 kts | 250° |
| 2026-04-27 09:04 | 52.69311 | -1.82011 | 14313 ft | 536 kts | 250° |
| 2026-04-27 09:04 | 52.67985 | -1.87700 | 14322 ft | 536 kts | 250° |
| 2026-04-27 09:04 | 52.66646 | -1.93432 | 14326 ft | 536 kts | 250° |
| 2026-04-27 09:04 | 52.65307 | -1.99161 | 14331 ft | 536 kts | 250° |
| 2026-04-27 09:05 | 52.64088 | -2.04354 | 14329 ft | 537 kts | 250° |
| 2026-04-27 09:05 | 52.62734 | -2.10078 | 14336 ft | 537 kts | 250° |
| 2026-04-27 09:05 | 52.61400 | -2.15697 | 14339 ft | 537 kts | 250° |
| 2026-04-27 09:05 | 52.60023 | -2.21482 | 14340 ft | 537 kts | 250° |
| 2026-04-27 09:06 | 52.58674 | -2.27135 | 14342 ft | 537 kts | 250° |
| 2026-04-27 09:06 | 52.57308 | -2.32851 | 14340 ft | 537 kts | 250° |
| 2026-04-27 09:06 | 52.55941 | -2.38561 | 14340 ft | 537 kts | 250° |
| 2026-04-27 09:06 | 52.54887 | -2.44428 | 14343 ft | 534 kts | 260° |
| 2026-04-27 09:07 | 52.54160 | -2.50404 | 14329 ft | 534 kts | 261° |
| 2026-04-27 09:07 | 52.53453 | -2.56420 | 14259 ft | 536 kts | 261° |
| 2026-04-27 09:07 | 52.52758 | -2.62410 | 13506 ft | 530 kts | 261° |
| 2026-04-27 09:07 | 52.52082 | -2.68311 | 12718 ft | 524 kts | 261° |
| 2026-04-27 09:08 | 52.51421 | -2.74166 | 11954 ft | 518 kts | 261° |
| 2026-04-27 09:08 | 52.50779 | -2.79939 | 11203 ft | 512 kts | 261° |
| 2026-04-27 09:08 | 52.50152 | -2.85667 | 10470 ft | 507 kts | 261° |
| 2026-04-27 09:08 | 52.49540 | -2.91339 | 9697 ft | 501 kts | 261° |
| 2026-04-27 09:09 | 52.48954 | -2.96856 | 8922 ft | 494 kts | 261° |
| 2026-04-27 09:09 | 52.48373 | -3.02393 | 8143 ft | 492 kts | 261° |
| 2026-04-27 09:09 | 52.47804 | -3.07894 | 7396 ft | 486 kts | 261° |
| 2026-04-27 09:09 | 52.47249 | -3.13338 | 6658 ft | 482 kts | 261° |
| 2026-04-27 09:10 | 52.46701 | -3.18765 | 5879 ft | 477 kts | 261° |
| 2026-04-27 09:10 | 52.46254 | -3.24063 | 5126 ft | 472 kts | 269° |
| 2026-04-27 09:10 | 52.46715 | -3.29340 | 4364 ft | 468 kts | 289° |
| 2026-04-27 09:10 | 52.48253 | -3.34005 | 3681 ft | 463 kts | 310° |
| 2026-04-27 09:11 | 52.50671 | -3.37420 | 3323 ft | 460 kts | 330° |
| 2026-04-27 09:11 | 52.53637 | -3.39268 | 3158 ft | 458 kts | 346° |
| 2026-04-27 09:11 | 52.56754 | -3.40380 | 3096 ft | 456 kts | 348° |
| 2026-04-27 09:11 | 52.59842 | -3.41244 | 2382 ft | 449 kts | 354° |
| 2026-04-27 09:12 | 52.62935 | -3.41683 | 1693 ft | 438 kts | 355° |
| 2026-04-27 09:12 | 52.65910 | -3.42059 | 1486 ft | 428 kts | 356° |
| 2026-04-27 09:12 | 52.68934 | -3.42395 | 1517 ft | 442 kts | 356° |
| 2026-04-27 09:12 | 52.72036 | -3.42745 | 1549 ft | 450 kts | 356° |
| 2026-04-27 09:13 | 52.75109 | -3.43092 | 1583 ft | 435 kts | 356° |
| 2026-04-27 09:13 | 52.78084 | -3.43430 | 1676 ft | 423 kts | 356° |
| 2026-04-27 09:13 | 52.81013 | -3.43780 | 2128 ft | 424 kts | 356° |
| 2026-04-27 09:13 | 52.83910 | -3.44128 | 2120 ft | 447 kts | 356° |
| 2026-04-27 09:14 | 52.87044 | -3.44509 | 2098 ft | 451 kts | 355° |
| 2026-04-27 09:14 | 52.90077 | -3.44889 | 1834 ft | 431 kts | 356° |
| 2026-04-27 09:14 | 52.93047 | -3.45235 | 1447 ft | 433 kts | 356° |
| 2026-04-27 09:14 | 52.96027 | -3.45584 | 1342 ft | 425 kts | 355° |
| 2026-04-27 09:15 | 52.98954 | -3.46029 | 1266 ft | 419 kts | 346° |
| 2026-04-27 09:15 | 53.01262 | -3.48750 | 1479 ft | 416 kts | 321° |
| 2026-04-27 09:15 | 53.03509 | -3.51817 | 1534 ft | 418 kts | 321° |
| 2026-04-27 09:15 | 53.05724 | -3.54836 | 2181 ft | 407 kts | 321° |
| 2026-04-27 09:16 | 53.07867 | -3.57785 | 2394 ft | 391 kts | 321° |
| 2026-04-27 09:16 | 53.08264 | -3.61173 | 2371 ft | 405 kts | 190° |
| 2026-04-27 09:16 | 53.05429 | -3.61787 | 1994 ft | 402 kts | 186° |
| 2026-04-27 09:16 | 53.02600 | -3.62162 | 1733 ft | 415 kts | 177° |
| 2026-04-27 09:17 | 52.99700 | -3.61742 | 1974 ft | 423 kts | 174° |
| 2026-04-27 09:17 | 52.96659 | -3.61220 | 2349 ft | 452 kts | 174° |
| 2026-04-27 09:17 | 52.93389 | -3.60590 | 1861 ft | 496 kts | 172° |
| 2026-04-27 09:17 | 52.90038 | -3.60679 | 1280 ft | 455 kts | 214° |
| 2026-04-27 09:18 | 52.87770 | -3.63615 | 1287 ft | 395 kts | 219° |
| 2026-04-27 09:18 | 52.85681 | -3.66441 | 1244 ft | 395 kts | 220° |
| 2026-04-27 09:18 | 52.83523 | -3.69454 | 1277 ft | 414 kts | 220° |
| 2026-04-27 09:18 | 52.81241 | -3.72447 | 1335 ft | 423 kts | 216° |
| 2026-04-27 09:19 | 52.78737 | -3.75087 | 1343 ft | 431 kts | 212° |
| 2026-04-27 09:19 | 52.76201 | -3.77733 | 1368 ft | 426 kts | 214° |
| 2026-04-27 09:19 | 52.73844 | -3.80622 | 1327 ft | 418 kts | 217° |
| 2026-04-27 09:19 | 52.71542 | -3.83487 | 1272 ft | 411 kts | 216° |
| 2026-04-27 09:20 | 52.69521 | -3.86796 | 1108 ft | 422 kts | 224° |
| 2026-04-27 09:20 | 52.67015 | -3.87176 | 1293 ft | 445 kts | 131° |
| 2026-04-27 09:20 | 52.64710 | -3.84144 | 599 ft | 423 kts | 195° |
| 2026-04-27 09:20 | 52.61895 | -3.84732 | 492 ft | 421 kts | 173° |
| 2026-04-27 09:21 | 52.60275 | -3.82382 | 681 ft | 401 kts | 63° |
| 2026-04-27 09:21 | 52.61532 | -3.78278 | 632 ft | 398 kts | 62° |
| 2026-04-27 09:21 | 52.62895 | -3.74289 | 421 ft | 403 kts | 55° |
| 2026-04-27 09:21 | 52.64988 | -3.71448 | 396 ft | 407 kts | 17° |
| 2026-04-27 09:22 | 52.67774 | -3.70285 | 444 ft | 413 kts | 18° |
| 2026-04-27 09:22 | 52.70528 | -3.68986 | 493 ft | 415 kts | 5° |
| 2026-04-27 09:22 | 52.72819 | -3.70920 | 900 ft | 414 kts | 304° |
| 2026-04-27 09:22 | 52.73192 | -3.75517 | 1060 ft | 423 kts | 279° |
| 2026-04-27 09:23 | 52.73875 | -3.80008 | 1329 ft | 425 kts | 266° |
| 2026-04-27 09:23 | 52.72611 | -3.83947 | 1658 ft | 427 kts | 194° |
| 2026-04-27 09:23 | 52.69861 | -3.85797 | 1109 ft | 450 kts | 218° |
| 2026-04-27 09:23 | 52.67490 | -3.89341 | 819 ft | 459 kts | 224° |
| 2026-04-27 09:24 | 52.65400 | -3.93206 | 792 ft | 445 kts | 236° |
| 2026-04-27 09:24 | 52.63549 | -3.97369 | 423 ft | 454 kts | 233° |
| 2026-04-27 09:24 | 52.61734 | -4.01399 | 411 ft | 422 kts | 235° |
| 2026-04-27 09:24 | 52.60249 | -4.05445 | 438 ft | 423 kts | 243° |
| 2026-04-27 09:25 | 52.58866 | -4.09817 | 805 ft | 407 kts | 243° |
| 2026-04-27 09:25 | 52.57731 | -4.13534 | 1701 ft | 328 kts | 248° |
| 2026-04-27 09:25 | 52.57160 | -4.16957 | 2450 ft | 311 kts | 272° |
| 2026-04-27 09:25 | 52.57460 | -4.20444 | 3226 ft | 310 kts | 283° |
| 2026-04-27 09:26 | 52.57916 | -4.23927 | 4012 ft | 311 kts | 286° |
| 2026-04-27 09:26 | 52.58675 | -4.27263 | 4780 ft | 313 kts | 300° |
| 2026-04-27 09:26 | 52.59991 | -4.30113 | 5548 ft | 314 kts | 316° |
| 2026-04-27 09:26 | 52.61657 | -4.32470 | 6103 ft | 319 kts | 321° |
| 2026-04-27 09:27 | 52.63457 | -4.34667 | 6320 ft | 321 kts | 324° |
| 2026-04-27 09:27 | 52.65268 | -4.36752 | 6412 ft | 323 kts | 324° |
| 2026-04-27 09:27 | 52.67120 | -4.38822 | 6460 ft | 322 kts | 325° |
| 2026-04-27 09:27 | 52.68979 | -4.40875 | 6479 ft | 315 kts | 325° |
| 2026-04-27 09:28 | 52.70805 | -4.42882 | 6499 ft | 317 kts | 326° |
| 2026-04-27 09:28 | 52.72649 | -4.44913 | 6509 ft | 318 kts | 326° |
| 2026-04-27 09:28 | 52.74516 | -4.46874 | 6510 ft | 320 kts | 327° |
| 2026-04-27 09:28 | 52.76411 | -4.48800 | 6517 ft | 318 kts | 328° |
| 2026-04-27 09:29 | 52.78303 | -4.50694 | 6518 ft | 317 kts | 328° |
| 2026-04-27 09:29 | 52.80199 | -4.52575 | 6513 ft | 317 kts | 328° |
| 2026-04-27 09:29 | 52.82085 | -4.54442 | 6519 ft | 314 kts | 328° |
| 2026-04-27 09:29 | 52.83975 | -4.56333 | 6522 ft | 317 kts | 328° |
| 2026-04-27 09:30 | 52.85858 | -4.58225 | 6523 ft | 319 kts | 328° |
| 2026-04-27 09:30 | 52.87761 | -4.60146 | 6531 ft | 316 kts | 328° |
| 2026-04-27 09:30 | 52.89616 | -4.62018 | 6530 ft | 318 kts | 328° |
| 2026-04-27 09:30 | 52.91492 | -4.63916 | 6527 ft | 313 kts | 328° |
| 2026-04-27 09:31 | 52.93362 | -4.65809 | 6538 ft | 314 kts | 328° |
| 2026-04-27 09:31 | 52.95235 | -4.67708 | 6536 ft | 314 kts | 328° |
| 2026-04-27 09:31 | 52.97106 | -4.69604 | 6537 ft | 315 kts | 328° |
| 2026-04-27 09:31 | 52.98982 | -4.71510 | 6541 ft | 317 kts | 328° |
| 2026-04-27 09:32 | 53.00853 | -4.73413 | 6537 ft | 316 kts | 328° |
| 2026-04-27 09:32 | 53.02737 | -4.75290 | 6534 ft | 313 kts | 330° |
| 2026-04-27 09:32 | 53.04660 | -4.77024 | 6537 ft | 316 kts | 332° |
| 2026-04-27 09:32 | 53.06705 | -4.77891 | 6501 ft | 318 kts | 23° |
| 2026-04-27 09:33 | 53.08194 | -4.75069 | 6437 ft | 340 kts | 59° |
| 2026-04-27 09:33 | 53.08331 | -4.71362 | 6403 ft | 338 kts | 123° |
| 2026-04-27 09:33 | 53.06773 | -4.68514 | 6094 ft | 329 kts | 132° |
| 2026-04-27 09:33 | 53.05420 | -4.65429 | 5855 ft | 331 kts | 114° |
| 2026-04-27 09:34 | 53.04847 | -4.61801 | 5482 ft | 331 kts | 93° |
| 2026-04-27 09:34 | 53.04728 | -4.58022 | 5083 ft | 323 kts | 91° |
| 2026-04-27 09:34 | 53.04569 | -4.54353 | 4764 ft | 319 kts | 92° |
| 2026-04-27 09:34 | 53.04457 | -4.50686 | 4470 ft | 319 kts | 88° |
| 2026-04-27 09:35 | 53.04671 | -4.47021 | 4094 ft | 317 kts | 75° |
| 2026-04-27 09:35 | 53.05337 | -4.43568 | 3600 ft | 311 kts | 63° |
| 2026-04-27 09:35 | 53.06400 | -4.40541 | 3137 ft | 302 kts | 53° |
| 2026-04-27 09:35 | 53.07651 | -4.37750 | 2767 ft | 301 kts | 50° |
| 2026-04-27 09:36 | 53.08851 | -4.34911 | 2508 ft | 297 kts | 55° |
| 2026-04-27 09:36 | 53.10021 | -4.32101 | 2505 ft | 299 kts | 53° |
| 2026-04-27 09:36 | 53.11275 | -4.29450 | 2467 ft | 288 kts | 36° |
| 2026-04-27 09:36 | 53.13208 | -4.28680 | 2222 ft | 305 kts | 341° |
| 2026-04-27 09:37 | 53.14714 | -4.31015 | 1831 ft | 299 kts | 306° |
| 2026-04-27 09:37 | 53.15858 | -4.33944 | 1424 ft | 302 kts | 306° |
| 2026-04-27 09:37 | 53.17044 | -4.36693 | 1545 ft | 286 kts | 309° |
| 2026-04-27 09:37 | 53.18222 | -4.39379 | 1518 ft | 290 kts | 307° |
| 2026-04-27 09:38 | 53.19377 | -4.42239 | 1343 ft | 302 kts | 305° |
| 2026-04-27 09:38 | 53.20506 | -4.45140 | 1106 ft | 299 kts | 305° |
| 2026-04-27 09:38 | 53.21701 | -4.47911 | 963 ft | 292 kts | 310° |
| 2026-04-27 09:38 | 53.23006 | -4.50563 | 953 ft | 298 kts | 311° |
| 2026-04-27 09:39 | 53.24463 | -4.52925 | 873 ft | 288 kts | 6° |
| 2026-04-27 09:39 | 53.25011 | -4.50753 | 1031 ft | 253 kts | 125° |
| 2026-04-27 09:39 | 53.24081 | -4.48859 | 1129 ft | 184 kts | 131° |
| 2026-04-27 09:39 | 53.22919 | -4.48531 | 675 ft | 206 kts | 243° |
| 2026-04-27 09:40 | 53.23242 | -4.50507 | 298 ft | 194 kts | 314° |
| 2026-04-27 09:40 | 53.24035 | -4.52038 | 27 ft | 162 kts | 312° |
| 2026-04-27 09:40 | 53.24659 | -4.53199 | 30 ft | 107 kts | 311° |
| 2026-04-27 09:40 | 53.25006 | -4.53883 | 27 ft | 44 kts | 310° |
| 2026-04-27 09:41 | 53.25186 | -4.54225 | 32 ft | 35 kts | 310° |
| 2026-04-27 09:41 | 53.25333 | -4.54504 | 31 ft | 30 kts | 313° |
| 2026-04-27 09:41 | 53.25403 | -4.54560 | 31 ft | 8 kts | 17° |
| 2026-04-27 09:41 | 53.25447 | -4.54519 | 30 ft | 6 kts | 41° |
| 2026-04-27 09:42 | 53.25494 | -4.54483 | 30 ft | 9 kts | 17° |
| 2026-04-27 09:42 | 53.25573 | -4.54436 | 32 ft | 14 kts | 29° |
| 2026-04-27 09:42 | 53.25634 | -4.54323 | 35 ft | 15 kts | 60° |
| 2026-04-27 09:42 | 53.25685 | -4.54167 | 34 ft | 18 kts | 60° |
| 2026-04-27 09:43 | 53.25750 | -4.53977 | 32 ft | 17 kts | 61° |
| 2026-04-27 09:43 | 53.25776 | -4.53796 | 30 ft | 18 kts | 94° |
| 2026-04-27 09:43 | 53.25722 | -4.53648 | 32 ft | 14 kts | 147° |
| 2026-04-27 09:43 | 53.25626 | -4.53646 | 33 ft | 18 kts | 186° |
| 2026-04-27 09:44 | 53.25476 | -4.53676 | 32 ft | 23 kts | 187° |
| 2026-04-27 09:44 | 53.25328 | -4.53704 | 32 ft | 20 kts | 186° |
| 2026-04-27 09:44 | 53.25208 | -4.53725 | 32 ft | 11 kts | 187° |
| 2026-04-27 09:44 | 53.25125 | -4.53681 | 32 ft | 15 kts | 130° |
| 2026-04-27 09:45 | 53.25053 | -4.53534 | 33 ft | 13 kts | 118° |
| 2026-04-27 09:45 | 53.25075 | -4.53395 | 33 ft | 11 kts | 66° |
| 2026-04-27 09:45 | 53.25075 | -4.53331 | 33 ft | 3 kts | 154° |
| 2026-04-27 09:45 | 53.25074 | -4.53331 | 33 ft | 0 kts | 157° |
| 2026-04-27 09:53 | 53.25054 | -4.53317 | 33 ft | 8 kts | 161° |
| 2026-04-27 09:53 | 53.25016 | -4.53397 | 33 ft | 13 kts | 241° |
| 2026-04-27 09:53 | 53.24949 | -4.53333 | 33 ft | 17 kts | 129° |
| 2026-04-27 09:54 | 53.24862 | -4.53158 | 33 ft | 19 kts | 130° |
| 2026-04-27 09:54 | 53.24782 | -4.53003 | 33 ft | 17 kts | 131° |
| 2026-04-27 09:54 | 53.24708 | -4.52861 | 31 ft | 15 kts | 130° |
| 2026-04-27 09:54 | 53.24627 | -4.52697 | 30 ft | 21 kts | 129° |
| 2026-04-27 09:55 | 53.24525 | -4.52495 | 32 ft | 24 kts | 132° |
| 2026-04-27 09:55 | 53.24403 | -4.52259 | 35 ft | 28 kts | 128° |
| 2026-04-27 09:55 | 53.24183 | -4.51892 | 28 ft | 14 kts | 182° |
| 2026-04-27 09:56 | 53.24102 | -4.51954 | 27 ft | 13 kts | 223° |
| 2026-04-27 09:56 | 53.24065 | -4.52084 | 26 ft | 11 kts | 300° |
| 2026-04-27 09:56 | 53.24096 | -4.52154 | 28 ft | 0 kts | 311° |
| 2026-04-27 09:57 | 53.24175 | -4.52304 | 30 ft | 90 kts | 311° |
| 2026-04-27 09:57 | 53.25075 | -4.54098 | 279 ft | 302 kts | 309° |
| 2026-04-27 09:58 | 53.26423 | -4.56861 | 825 ft | 286 kts | 309° |
| 2026-04-27 09:58 | 53.27625 | -4.59497 | 1634 ft | 286 kts | 307° |
| 2026-04-27 09:58 | 53.28794 | -4.62284 | 2555 ft | 299 kts | 304° |
| 2026-04-27 09:58 | 53.29988 | -4.65180 | 3588 ft | 305 kts | 310° |
| 2026-04-27 09:59 | 53.31804 | -4.66879 | 4157 ft | 318 kts | 358° |
| 2026-04-27 09:59 | 53.33752 | -4.65542 | 4580 ft | 308 kts | 51° |
| 2026-04-27 09:59 | 53.34138 | -4.62119 | 4793 ft | 324 kts | 109° |
| 2026-04-27 09:59 | 53.32880 | -4.58897 | 4913 ft | 336 kts | 124° |
| 2026-04-27 10:00 | 53.31544 | -4.55727 | 5013 ft | 331 kts | 124° |
| 2026-04-27 10:00 | 53.30203 | -4.52625 | 5019 ft | 329 kts | 123° |
| 2026-04-27 10:00 | 53.28893 | -4.49478 | 4999 ft | 329 kts | 123° |
| 2026-04-27 10:00 | 53.27561 | -4.46379 | 5021 ft | 328 kts | 126° |
| 2026-04-27 10:01 | 53.26402 | -4.43124 | 5039 ft | 325 kts | 111° |
| 2026-04-27 10:01 | 53.25529 | -4.39635 | 5058 ft | 324 kts | 109° |
| 2026-04-27 10:01 | 53.24765 | -4.36099 | 5071 ft | 324 kts | 105° |
| 2026-04-27 10:01 | 53.24113 | -4.32503 | 5061 ft | 323 kts | 104° |
| 2026-04-27 10:02 | 53.23508 | -4.28880 | 5053 ft | 324 kts | 102° |
| 2026-04-27 10:02 | 53.22985 | -4.25268 | 5037 ft | 324 kts | 101° |
| 2026-04-27 10:02 | 53.22506 | -4.21591 | 5024 ft | 324 kts | 99° |
| 2026-04-27 10:02 | 53.22128 | -4.17882 | 5017 ft | 324 kts | 97° |
| 2026-04-27 10:03 | 53.21792 | -4.14162 | 5004 ft | 324 kts | 97° |
| 2026-04-27 10:03 | 53.21471 | -4.10439 | 5002 ft | 324 kts | 97° |
| 2026-04-27 10:03 | 53.21177 | -4.06706 | 4996 ft | 324 kts | 98° |
| 2026-04-27 10:03 | 53.20800 | -4.02998 | 4989 ft | 328 kts | 108° |
| 2026-04-27 10:04 | 53.19265 | -4.00359 | 4898 ft | 315 kts | 150° |
| 2026-04-27 10:04 | 53.17317 | -3.98502 | 4592 ft | 349 kts | 152° |
| 2026-04-27 10:04 | 53.14974 | -3.96581 | 3924 ft | 395 kts | 154° |
| 2026-04-27 10:04 | 53.12484 | -3.94546 | 2363 ft | 424 kts | 153° |
| 2026-04-27 10:05 | 53.09789 | -3.92079 | 1608 ft | 462 kts | 149° |
| 2026-04-27 10:05 | 53.07024 | -3.89408 | 1557 ft | 452 kts | 148° |
| 2026-04-27 10:05 | 53.04212 | -3.86925 | 1798 ft | 454 kts | 153° |
| 2026-04-27 10:05 | 53.01318 | -3.84546 | 1567 ft | 469 kts | 150° |
| 2026-04-27 10:06 | 52.98623 | -3.82010 | 1630 ft | 438 kts | 150° |
| 2026-04-27 10:06 | 52.95927 | -3.79652 | 1616 ft | 438 kts | 153° |
| 2026-04-27 10:06 | 52.93208 | -3.77347 | 1664 ft | 436 kts | 152° |
| 2026-04-27 10:06 | 52.90538 | -3.75187 | 2447 ft | 437 kts | 151° |
| 2026-04-27 10:07 | 52.87742 | -3.72679 | 1515 ft | 452 kts | 149° |
| 2026-04-27 10:07 | 52.85027 | -3.70261 | 1220 ft | 440 kts | 152° |
| 2026-04-27 10:07 | 52.82326 | -3.68019 | 2103 ft | 429 kts | 149° |
| 2026-04-27 10:07 | 52.79649 | -3.65407 | 2217 ft | 465 kts | 153° |
| 2026-04-27 10:08 | 52.76992 | -3.62644 | 805 ft | 451 kts | 154° |
| 2026-04-27 10:08 | 52.74291 | -3.60189 | 1861 ft | 442 kts | 152° |
| 2026-04-27 10:08 | 52.71484 | -3.57820 | 1544 ft | 464 kts | 152° |
| 2026-04-27 10:08 | 52.68735 | -3.55404 | 1437 ft | 431 kts | 151° |
| 2026-04-27 10:09 | 52.66051 | -3.53084 | 1227 ft | 454 kts | 151° |
| 2026-04-27 10:09 | 52.63260 | -3.50579 | 1285 ft | 454 kts | 150° |
| 2026-04-27 10:09 | 52.60455 | -3.48037 | 1511 ft | 461 kts | 150° |
| 2026-04-27 10:09 | 52.57700 | -3.45566 | 1625 ft | 451 kts | 151° |
| 2026-04-27 10:10 | 52.54964 | -3.43126 | 1332 ft | 455 kts | 151° |
| 2026-04-27 10:10 | 52.52257 | -3.40635 | 813 ft | 430 kts | 149° |
| 2026-04-27 10:10 | 52.49777 | -3.38358 | 1493 ft | 399 kts | 150° |
| 2026-04-27 10:10 | 52.47966 | -3.35493 | 3292 ft | 319 kts | 92° |
| 2026-04-27 10:11 | 52.48092 | -3.31744 | 4874 ft | 348 kts | 84° |
| 2026-04-27 10:11 | 52.48366 | -3.27793 | 5527 ft | 346 kts | 81° |
| 2026-04-27 10:11 | 52.48679 | -3.23991 | 6276 ft | 342 kts | 82° |
| 2026-04-27 10:11 | 52.49216 | -3.20004 | 7075 ft | 404 kts | 79° |
| 2026-04-27 10:12 | 52.49710 | -3.14609 | 7861 ft | 499 kts | 83° |
| 2026-04-27 10:12 | 52.50083 | -3.08918 | 8623 ft | 506 kts | 84° |
| 2026-04-27 10:12 | 52.50397 | -3.03143 | 9392 ft | 510 kts | 84° |
| 2026-04-27 10:12 | 52.50679 | -2.97335 | 10179 ft | 517 kts | 84° |
| 2026-04-27 10:13 | 52.50943 | -2.91486 | 10883 ft | 523 kts | 85° |
| 2026-04-27 10:13 | 52.51199 | -2.85511 | 11619 ft | 528 kts | 85° |
| 2026-04-27 10:13 | 52.51447 | -2.79461 | 12374 ft | 534 kts | 85° |
| 2026-04-27 10:13 | 52.51676 | -2.73667 | 13108 ft | 539 kts | 85° |
| 2026-04-27 10:14 | 52.51913 | -2.67449 | 13585 ft | 546 kts | 85° |
| 2026-04-27 10:14 | 52.52143 | -2.61223 | 13790 ft | 547 kts | 85° |
| 2026-04-27 10:14 | 52.52374 | -2.54970 | 13884 ft | 548 kts | 84° |
| 2026-04-27 10:14 | 52.53102 | -2.48979 | 13936 ft | 544 kts | 70° |
| 2026-04-27 10:15 | 52.54382 | -2.43319 | 13952 ft | 545 kts | 67° |
| 2026-04-27 10:15 | 52.55736 | -2.37525 | 14032 ft | 543 kts | 67° |
| 2026-04-27 10:15 | 52.57096 | -2.31719 | 14206 ft | 546 kts | 67° |
| 2026-04-27 10:15 | 52.58450 | -2.25941 | 14284 ft | 546 kts | 67° |
| 2026-04-27 10:16 | 52.59816 | -2.20108 | 14314 ft | 546 kts | 67° |
| 2026-04-27 10:16 | 52.61165 | -2.14338 | 14329 ft | 546 kts | 67° |
| 2026-04-27 10:16 | 52.62532 | -2.08496 | 14338 ft | 546 kts | 67° |
| 2026-04-27 10:16 | 52.63827 | -2.02949 | 14336 ft | 546 kts | 67° |
| 2026-04-27 10:17 | 52.65164 | -1.97229 | 14335 ft | 547 kts | 67° |
| 2026-04-27 10:17 | 52.66535 | -1.91391 | 14331 ft | 546 kts | 67° |
| 2026-04-27 10:17 | 52.67906 | -1.85563 | 14318 ft | 546 kts | 67° |
| 2026-04-27 10:17 | 52.69231 | -1.79928 | 14313 ft | 546 kts | 67° |
| 2026-04-27 10:18 | 52.70604 | -1.74084 | 14317 ft | 546 kts | 67° |
| 2026-04-27 10:18 | 52.71975 | -1.68240 | 14319 ft | 546 kts | 67° |
| 2026-04-27 10:18 | 52.73345 | -1.62397 | 14317 ft | 546 kts | 67° |
| 2026-04-27 10:18 | 52.74702 | -1.56603 | 14313 ft | 546 kts | 67° |
| 2026-04-27 10:19 | 52.76073 | -1.50741 | 14331 ft | 548 kts | 67° |
| 2026-04-27 10:19 | 52.77450 | -1.44846 | 14327 ft | 549 kts | 67° |
| 2026-04-27 10:19 | 52.78821 | -1.38969 | 14322 ft | 549 kts | 67° |
| 2026-04-27 10:19 | 52.80170 | -1.33184 | 14321 ft | 549 kts | 67° |
| 2026-04-27 10:20 | 52.81541 | -1.27297 | 14319 ft | 549 kts | 67° |
| 2026-04-27 10:20 | 52.82891 | -1.21492 | 14321 ft | 549 kts | 67° |
| 2026-04-27 10:20 | 52.84260 | -1.15599 | 14319 ft | 549 kts | 68° |
| 2026-04-27 10:20 | 52.85631 | -1.09689 | 14315 ft | 549 kts | 68° |
| 2026-04-27 10:21 | 52.86868 | -1.03711 | 14312 ft | 551 kts | 76° |
| 2026-04-27 10:21 | 52.87150 | -0.97374 | 14320 ft | 556 kts | 94° |
| 2026-04-27 10:21 | 52.86316 | -0.91135 | 14300 ft | 557 kts | 109° |
| 2026-04-27 10:21 | 52.84896 | -0.85260 | 14293 ft | 557 kts | 113° |
| 2026-04-27 10:22 | 52.83297 | -0.79409 | 14288 ft | 558 kts | 115° |
| 2026-04-27 10:22 | 52.81641 | -0.73606 | 14283 ft | 558 kts | 115° |
| 2026-04-27 10:22 | 52.79965 | -0.67839 | 14285 ft | 558 kts | 115° |
| 2026-04-27 10:22 | 52.78324 | -0.62244 | 14286 ft | 558 kts | 115° |
| 2026-04-27 10:23 | 52.76623 | -0.56469 | 14284 ft | 558 kts | 116° |
| 2026-04-27 10:23 | 52.74927 | -0.50735 | 14275 ft | 556 kts | 116° |
| 2026-04-27 10:23 | 52.73207 | -0.45017 | 14288 ft | 557 kts | 116° |
| 2026-04-27 10:23 | 52.71471 | -0.39465 | 14204 ft | 557 kts | 117° |
| 2026-04-27 10:24 | 52.69677 | -0.33827 | 13446 ft | 550 kts | 117° |
| 2026-04-27 10:24 | 52.67901 | -0.28290 | 12651 ft | 543 kts | 118° |
| 2026-04-27 10:24 | 52.66146 | -0.22834 | 11880 ft | 534 kts | 118° |
| 2026-04-27 10:24 | 52.64423 | -0.17471 | 11136 ft | 527 kts | 118° |
| 2026-04-27 10:25 | 52.62759 | -0.12282 | 10415 ft | 520 kts | 118° |
| 2026-04-27 10:25 | 52.61083 | -0.07047 | 9638 ft | 515 kts | 118° |
| 2026-04-27 10:25 | 52.59527 | -0.02181 | 8837 ft | 446 kts | 118° |
| 2026-04-27 10:25 | 52.58165 | 0.02076 | 8073 ft | 398 kts | 118° |
| 2026-04-27 10:26 | 52.56884 | 0.06068 | 7317 ft | 393 kts | 118° |
| 2026-04-27 10:26 | 52.55613 | 0.10014 | 6565 ft | 388 kts | 118° |
| 2026-04-27 10:26 | 52.54369 | 0.13866 | 5811 ft | 385 kts | 118° |
| 2026-04-27 10:26 | 52.53125 | 0.17722 | 5060 ft | 380 kts | 118° |
| 2026-04-27 10:27 | 52.51894 | 0.21532 | 4292 ft | 374 kts | 118° |
| 2026-04-27 10:27 | 52.50675 | 0.25290 | 3545 ft | 368 kts | 118° |
| 2026-04-27 10:27 | 52.49467 | 0.28995 | 2960 ft | 366 kts | 118° |
| 2026-04-27 10:27 | 52.48319 | 0.32507 | 2697 ft | 328 kts | 118° |
| 2026-04-27 10:28 | 52.47265 | 0.35730 | 2601 ft | 319 kts | 118° |
| 2026-04-27 10:28 | 52.46245 | 0.38840 | 2525 ft | 318 kts | 118° |
| 2026-04-27 10:28 | 52.45206 | 0.42018 | 2531 ft | 315 kts | 118° |
| 2026-04-27 10:28 | 52.44170 | 0.45192 | 2521 ft | 315 kts | 118° |
| 2026-04-27 10:29 | 52.43133 | 0.48366 | 2500 ft | 316 kts | 118° |
| 2026-04-27 10:29 | 52.42098 | 0.51536 | 2508 ft | 316 kts | 118° |
| 2026-04-27 10:29 | 52.41062 | 0.54714 | 2542 ft | 318 kts | 118° |
| 2026-04-27 10:29 | 52.39745 | 0.57432 | 2310 ft | 302 kts | 141° |
| 2026-04-27 10:30 | 52.37998 | 0.59459 | 1956 ft | 313 kts | 146° |
| 2026-04-27 10:30 | 52.36246 | 0.61441 | 2085 ft | 308 kts | 139° |
| 2026-04-27 10:30 | 52.35754 | 0.64690 | 2051 ft | 324 kts | 70° |
| 2026-04-27 10:30 | 52.36479 | 0.68080 | 1980 ft | 309 kts | 66° |
| 2026-04-27 10:31 | 52.38144 | 0.69671 | 1976 ft | 309 kts | 339° |
| 2026-04-27 10:31 | 52.39667 | 0.67339 | 1627 ft | 297 kts | 307° |
| 2026-04-27 10:31 | 52.40918 | 0.64675 | 1479 ft | 309 kts | 308° |
| 2026-04-27 10:31 | 52.42215 | 0.61989 | 1507 ft | 305 kts | 304° |
| 2026-04-27 10:32 | 52.42083 | 0.58793 | 1352 ft | 306 kts | 236° |
| 2026-04-27 10:32 | 52.40543 | 0.57049 | 1270 ft | 286 kts | 145° |
| 2026-04-27 10:32 | 52.40512 | 0.59591 | 1516 ft | 237 kts | 56° |
| 2026-04-27 10:32 | 52.41305 | 0.61528 | 1561 ft | 198 kts | 56° |
| 2026-04-27 10:33 | 52.42366 | 0.62404 | 892 ft | 199 kts | 318° |
| 2026-04-27 10:33 | 52.42722 | 0.61165 | 587 ft | 179 kts | 263° |
| 2026-04-27 10:33 | 52.42075 | 0.58857 | 144 ft | 167 kts | 237° |
| 2026-04-27 10:33 | 52.41435 | 0.57307 | 39 ft | 158 kts | 237° |
| 2026-04-27 10:34 | 52.40938 | 0.56114 | 38 ft | 99 kts | 237° |
| 2026-04-27 10:34 | 52.40613 | 0.55342 | 35 ft | 69 kts | 236° |
| 2026-04-27 10:34 | 52.40438 | 0.54925 | 33 ft | 62 kts | 235° |
| 2026-04-27 10:34 | 52.40271 | 0.54535 | 30 ft | 14 kts | 232° |
| 2026-04-27 10:35 | 52.40203 | 0.54545 | 32 ft | 13 kts | 120° |
| 2026-04-27 10:35 | 52.40159 | 0.54680 | 34 ft | 14 kts | 118° |
| 2026-04-27 10:35 | 52.40105 | 0.54843 | 34 ft | 20 kts | 118° |
| 2026-04-27 10:35 | 52.40036 | 0.55051 | 34 ft | 20 kts | 118° |
| 2026-04-27 10:36 | 52.40012 | 0.55241 | 35 ft | 15 kts | 85° |
| 2026-04-27 10:36 | 52.40025 | 0.55420 | 35 ft | 15 kts | 81° |
| 2026-04-27 10:36 | 52.40075 | 0.55471 | 36 ft | 8 kts | 30° |
| 2026-04-27 10:36 | 52.40080 | 0.55521 | 37 ft | 4 kts | 154° |
| 2026-04-27 10:37 | 52.40067 | 0.55527 | 36 ft | 0 kts | 170° |